createdAt,value
2017-07-15T00:00:46.320Z,13.90
2017-07-15T00:03:14.770Z,13.80
2017-07-15T00:05:43.343Z,13.80
2017-07-15T00:08:13.011Z,13.70
2017-07-15T00:10:42.779Z,13.60
2017-07-15T00:13:11.243Z,13.60
2017-07-15T00:15:40.096Z,13.60
2017-07-15T00:18:08.945Z,13.40
2017-07-15T00:20:37.466Z,13.30
2017-07-15T00:23:06.323Z,13.30
2017-07-15T00:25:36.452Z,13.30
2017-07-15T00:28:06.041Z,13.30
2017-07-15T00:30:34.671Z,13.30
2017-07-15T00:33:03.520Z,13.30
2017-07-15T00:35:32.000Z,13.30
2017-07-15T00:38:00.895Z,13.30
2017-07-15T00:40:29.345Z,13.30
2017-07-15T00:42:58.418Z,13.20
2017-07-15T00:45:26.945Z,13.20
2017-07-15T00:47:55.464Z,13.20
2017-07-15T00:50:24.325Z,13.20
2017-07-15T00:52:52.848Z,13.30
2017-07-15T00:55:21.282Z,13.30
2017-07-15T00:57:49.751Z,13.30
2017-07-15T01:00:19.077Z,13.30
2017-07-15T01:02:47.982Z,13.20
2017-07-15T01:05:16.434Z,13.20
2017-07-15T01:07:45.272Z,13.20
2017-07-15T01:10:14.165Z,13.20
2017-07-15T01:12:43.014Z,13.10
2017-07-15T01:15:12.004Z,13.10
2017-07-15T01:17:40.898Z,13.00
2017-07-15T01:20:09.385Z,13.00
2017-07-15T01:22:39.439Z,13.00
2017-07-15T01:25:08.302Z,13.00
2017-07-15T01:27:37.147Z,13.00
2017-07-15T01:30:07.064Z,12.90
2017-07-15T01:32:35.948Z,12.90
2017-07-15T01:35:04.891Z,12.90
2017-07-15T01:37:33.347Z,12.90
2017-07-15T01:40:02.209Z,12.90
2017-07-15T01:42:31.509Z,12.90
2017-07-15T01:44:59.937Z,12.90
2017-07-15T01:47:28.806Z,12.90
2017-07-15T01:49:57.684Z,12.90
2017-07-15T01:52:26.922Z,12.90
2017-07-15T01:54:56.288Z,12.90
2017-07-15T01:57:24.402Z,12.90
2017-07-15T01:59:52.858Z,12.90
2017-07-15T02:02:21.366Z,13.00
2017-07-15T02:04:49.807Z,13.00
2017-07-15T02:07:18.981Z,13.00
2017-07-15T02:09:47.482Z,13.00
2017-07-15T02:12:15.943Z,13.00
2017-07-15T02:14:44.844Z,13.00
2017-07-15T02:17:14.489Z,12.90
2017-07-15T02:19:42.953Z,12.90
2017-07-15T02:22:11.439Z,12.80
2017-07-15T02:24:39.904Z,12.80
2017-07-15T02:27:08.418Z,12.80
2017-07-15T02:29:36.895Z,12.80
2017-07-15T02:32:05.348Z,12.70
2017-07-15T02:34:34.255Z,12.70
2017-07-15T02:37:02.768Z,12.70
2017-07-15T02:39:31.611Z,12.70
2017-07-15T02:42:00.448Z,12.70
2017-07-15T02:44:29.507Z,12.70
2017-07-15T02:46:58.368Z,12.70
2017-07-15T02:49:27.809Z,12.60
2017-07-15T02:51:56.640Z,12.60
2017-07-15T02:54:25.097Z,12.60
2017-07-15T02:56:54.416Z,12.60
2017-07-15T02:59:23.097Z,12.60
2017-07-15T03:01:51.925Z,12.60
2017-07-15T03:04:20.388Z,12.50
2017-07-15T03:06:48.871Z,12.50
2017-07-15T03:09:17.698Z,12.50
2017-07-15T03:11:46.147Z,12.50
2017-07-15T03:14:15.054Z,12.50
2017-07-15T03:16:43.532Z,12.40
2017-07-15T03:19:12.415Z,12.40
2017-07-15T03:21:41.830Z,12.40
2017-07-15T03:24:10.451Z,12.40
2017-07-15T03:27:01.318Z,12.50
2017-07-15T03:29:30.284Z,12.40
2017-07-15T03:31:58.743Z,12.40
2017-07-15T03:34:27.686Z,12.40
2017-07-15T03:36:56.554Z,12.30
2017-07-15T03:39:25.191Z,12.40
2017-07-15T03:41:53.686Z,12.40
2017-07-15T03:44:22.347Z,12.30
2017-07-15T03:46:51.218Z,12.30
2017-07-15T03:49:20.314Z,12.30
2017-07-15T03:51:49.203Z,12.30
2017-07-15T03:54:17.644Z,12.30
2017-07-15T03:56:46.153Z,12.40
2017-07-15T03:59:14.992Z,12.50
2017-07-15T04:01:44.577Z,12.50
2017-07-15T04:04:13.030Z,12.60
2017-07-15T04:06:41.540Z,12.60
2017-07-15T04:09:10.388Z,12.60
2017-07-15T04:11:38.882Z,12.50
2017-07-15T04:14:08.103Z,12.60
2017-07-15T04:16:36.998Z,12.60
2017-07-15T04:19:05.868Z,12.60
2017-07-15T04:21:34.938Z,12.60
2017-07-15T04:24:03.842Z,12.60
2017-07-15T04:26:33.064Z,12.60
2017-07-15T04:29:01.530Z,12.70
2017-07-15T04:31:30.410Z,12.70
2017-07-15T04:33:58.873Z,12.70
2017-07-15T04:36:27.778Z,12.80
2017-07-15T04:38:56.269Z,12.80
2017-07-15T04:41:25.117Z,12.90
2017-07-15T04:43:54.166Z,12.90
2017-07-15T04:46:23.058Z,13.00
2017-07-15T04:48:51.989Z,13.10
2017-07-15T04:51:20.829Z,13.20
2017-07-15T04:53:50.453Z,13.20
2017-07-15T04:56:18.901Z,13.10
2017-07-15T04:58:47.757Z,13.10
2017-07-15T05:01:16.709Z,13.10
2017-07-15T05:03:46.066Z,13.20
2017-07-15T05:06:14.904Z,13.40
2017-07-15T05:08:43.830Z,13.90
2017-07-15T05:11:12.677Z,14.20
2017-07-15T05:13:41.909Z,14.50
2017-07-15T05:16:10.794Z,14.80
2017-07-15T05:18:39.631Z,14.90
2017-07-15T05:21:08.085Z,15.10
2017-07-15T05:23:36.968Z,15.00
2017-07-15T05:26:05.819Z,14.80
2017-07-15T05:28:35.043Z,15.20
2017-07-15T05:31:03.950Z,15.50
2017-07-15T05:33:32.788Z,16.40
2017-07-15T05:36:01.631Z,16.80
2017-07-15T05:38:30.506Z,16.80
2017-07-15T05:40:59.700Z,15.90
2017-07-15T05:43:28.541Z,15.20
2017-07-15T05:45:57.829Z,15.00
2017-07-15T05:48:26.324Z,14.60
2017-07-15T05:50:55.992Z,14.50
2017-07-15T05:53:24.502Z,14.50
2017-07-15T05:55:52.947Z,14.40
2017-07-15T05:58:21.785Z,14.60
2017-07-15T06:00:51.495Z,14.80
2017-07-15T06:03:20.332Z,14.80
2017-07-15T06:05:49.253Z,14.80
2017-07-15T06:08:18.429Z,14.50
2017-07-15T06:10:47.273Z,14.70
2017-07-15T06:13:16.103Z,14.90
2017-07-15T06:15:44.612Z,15.30
2017-07-15T06:18:13.450Z,15.70
2017-07-15T06:20:42.095Z,15.60
2017-07-15T06:23:10.774Z,16.70
2017-07-15T06:25:39.791Z,18.80
2017-07-15T06:28:09.033Z,19.60
2017-07-15T06:30:37.490Z,18.60
2017-07-15T06:33:06.335Z,17.80
2017-07-15T06:35:35.241Z,17.90
2017-07-15T06:38:03.691Z,17.60
2017-07-15T06:40:32.525Z,18.10
2017-07-15T06:43:00.840Z,18.30
2017-07-15T06:45:29.703Z,18.70
2017-07-15T06:47:58.550Z,18.70
2017-07-15T06:50:27.049Z,18.20
2017-07-15T06:52:55.895Z,18.50
2017-07-15T06:55:24.744Z,19.20
2017-07-15T06:57:53.700Z,20.20
2017-07-15T07:00:22.535Z,20.90
2017-07-15T07:02:51.371Z,21.50
2017-07-15T07:05:20.303Z,21.50
2017-07-15T07:07:49.345Z,19.30
2017-07-15T07:10:18.212Z,19.30
2017-07-15T07:12:47.084Z,21.90
2017-07-15T07:15:16.295Z,22.10
2017-07-15T07:17:45.199Z,20.50
2017-07-15T07:20:14.042Z,19.80
2017-07-15T07:22:42.880Z,20.20
2017-07-15T07:25:11.749Z,20.80
2017-07-15T07:27:40.207Z,22.20
2017-07-15T07:30:08.716Z,23.60
2017-07-15T07:32:37.558Z,23.00
2017-07-15T07:35:06.517Z,23.80
2017-07-15T07:37:35.764Z,23.20
2017-07-15T07:40:04.213Z,21.80
2017-07-15T07:42:32.661Z,23.90
2017-07-15T07:45:01.729Z,21.90
2017-07-15T07:47:30.581Z,22.10
2017-07-15T07:49:59.036Z,22.60
2017-07-15T07:52:27.563Z,22.90
2017-07-15T07:54:56.013Z,22.00
2017-07-15T07:57:24.856Z,19.70
2017-07-15T07:59:54.265Z,19.10
2017-07-15T08:02:23.098Z,21.10
2017-07-15T08:04:52.705Z,22.30
2017-07-15T08:07:21.152Z,22.50
2017-07-15T08:09:50.731Z,24.40
2017-07-15T08:12:19.175Z,25.10
2017-07-15T08:14:47.819Z,23.80
2017-07-15T08:17:16.336Z,22.30
2017-07-15T08:19:45.191Z,23.50
2017-07-15T08:22:14.430Z,22.20
2017-07-15T08:24:42.878Z,22.30
2017-07-15T08:27:11.753Z,21.10
2017-07-15T08:29:40.592Z,20.20
2017-07-15T08:32:09.032Z,22.00
2017-07-15T08:34:37.523Z,23.50
2017-07-15T08:37:06.359Z,23.60
2017-07-15T08:39:35.204Z,25.20
2017-07-15T08:42:04.148Z,25.90
2017-07-15T08:44:33.250Z,24.70
2017-07-15T08:47:02.298Z,23.60
2017-07-15T08:49:31.361Z,24.60
2017-07-15T08:51:59.816Z,25.10
2017-07-15T08:54:29.024Z,23.90
2017-07-15T08:56:58.276Z,22.40
2017-07-15T08:59:26.908Z,22.30
2017-07-15T09:01:55.768Z,24.90
2017-07-15T09:04:24.278Z,26.00
2017-07-15T09:06:53.140Z,24.80
2017-07-15T09:09:21.579Z,22.40
2017-07-15T09:11:50.813Z,21.70
2017-07-15T09:14:19.256Z,23.20
2017-07-15T09:16:49.648Z,23.50
2017-07-15T09:19:18.874Z,24.00
2017-07-15T09:21:47.776Z,23.10
2017-07-15T09:24:16.526Z,25.10
2017-07-15T09:26:45.187Z,26.80
2017-07-15T09:29:13.677Z,25.80
2017-07-15T09:31:43.039Z,22.30
2017-07-15T09:34:11.909Z,22.10
2017-07-15T09:36:40.270Z,25.20
2017-07-15T09:39:09.098Z,28.10
2017-07-15T09:41:38.905Z,28.60
2017-07-15T09:44:07.749Z,25.70
2017-07-15T09:46:36.198Z,26.20
2017-07-15T09:49:05.094Z,24.40
2017-07-15T09:51:34.024Z,25.60
2017-07-15T09:54:03.743Z,26.60
2017-07-15T09:56:32.593Z,26.00
2017-07-15T09:59:02.636Z,24.50
2017-07-15T10:01:32.102Z,21.70
2017-07-15T10:04:00.998Z,20.50
2017-07-15T10:06:29.429Z,21.60
2017-07-15T10:08:57.873Z,22.50
2017-07-15T10:11:27.210Z,22.70
2017-07-15T10:13:55.655Z,23.30
2017-07-15T10:16:25.687Z,22.50
2017-07-15T10:18:54.129Z,22.10
2017-07-15T10:21:22.912Z,21.70
2017-07-15T10:23:51.824Z,21.10
2017-07-15T10:26:20.658Z,21.60
2017-07-15T10:28:49.092Z,23.20
2017-07-15T10:31:17.616Z,24.30
2017-07-15T10:33:46.039Z,25.60
2017-07-15T10:36:14.873Z,27.90
2017-07-15T10:38:43.378Z,29.80
2017-07-15T10:41:12.215Z,30.60
2017-07-15T10:43:40.775Z,30.70
2017-07-15T10:46:09.832Z,29.90
2017-07-15T10:48:38.288Z,27.80
2017-07-15T10:51:07.570Z,24.70
2017-07-15T10:53:36.024Z,23.20
2017-07-15T10:56:04.459Z,22.10
2017-07-15T10:58:33.391Z,21.80
2017-07-15T11:01:02.251Z,22.10
2017-07-15T11:03:31.111Z,25.20
2017-07-15T11:05:59.997Z,26.60
2017-07-15T11:08:28.885Z,26.10
2017-07-15T11:10:57.744Z,24.10
2017-07-15T11:13:26.620Z,23.00
2017-07-15T11:15:55.063Z,21.10
2017-07-15T11:18:24.277Z,20.50
2017-07-15T11:20:53.116Z,20.40
2017-07-15T11:23:22.075Z,21.30
2017-07-15T11:25:50.604Z,24.90
2017-07-15T11:28:19.434Z,27.70
2017-07-15T11:30:47.895Z,25.60
2017-07-15T11:33:17.169Z,23.80
2017-07-15T11:35:45.625Z,22.30
2017-07-15T11:38:14.070Z,21.60
2017-07-15T11:40:42.585Z,25.70
2017-07-15T11:43:11.467Z,28.00
2017-07-15T11:45:40.311Z,29.20
2017-07-15T11:48:09.580Z,30.10
2017-07-15T11:50:38.446Z,26.60
2017-07-15T11:53:08.135Z,23.40
2017-07-15T11:55:37.010Z,22.60
2017-07-15T11:58:05.651Z,21.60
2017-07-15T12:00:34.132Z,22.10
2017-07-15T12:03:02.625Z,24.90
2017-07-15T12:05:31.069Z,29.00
2017-07-15T12:07:59.499Z,31.00
2017-07-15T12:10:28.374Z,31.00
2017-07-15T12:12:57.251Z,31.30
2017-07-15T12:15:26.156Z,29.20
2017-07-15T12:17:55.395Z,26.90
2017-07-15T12:20:24.596Z,25.00
2017-07-15T12:22:53.841Z,23.20
2017-07-15T12:25:22.276Z,23.30
2017-07-15T12:27:50.806Z,27.30
2017-07-15T12:30:19.658Z,29.30
2017-07-15T12:32:48.113Z,28.10
2017-07-15T12:35:17.364Z,25.30
2017-07-15T12:37:47.171Z,24.50
2017-07-15T12:40:16.389Z,23.20
2017-07-15T12:42:44.822Z,22.00
2017-07-15T12:45:13.423Z,22.30
2017-07-15T12:47:42.318Z,25.30
2017-07-15T12:50:10.752Z,28.50
2017-07-15T12:52:40.023Z,27.60
2017-07-15T12:55:08.452Z,26.60
2017-07-15T12:57:37.312Z,25.10
2017-07-15T13:00:06.595Z,24.40
2017-07-15T13:02:35.061Z,23.50
2017-07-15T13:05:03.991Z,22.60
2017-07-15T13:07:32.827Z,22.50
2017-07-15T13:10:01.320Z,26.60
2017-07-15T13:12:30.427Z,28.20
2017-07-15T13:15:00.021Z,27.40
2017-07-15T13:17:28.456Z,30.10
2017-07-15T13:19:57.207Z,29.50
2017-07-15T13:22:27.388Z,30.00
2017-07-15T13:24:56.233Z,30.30
2017-07-15T13:27:25.055Z,27.40
2017-07-15T13:29:54.686Z,26.80
2017-07-15T13:32:23.587Z,26.40
2017-07-15T13:34:52.856Z,28.60
2017-07-15T13:37:21.687Z,28.50
2017-07-15T13:39:50.747Z,27.50
2017-07-15T13:42:19.579Z,25.30
2017-07-15T13:44:48.032Z,23.70
2017-07-15T13:47:16.541Z,23.90
2017-07-15T13:49:45.691Z,24.10
2017-07-15T13:52:14.720Z,23.80
2017-07-15T13:54:45.681Z,25.50
2017-07-15T13:57:14.110Z,27.00
2017-07-15T13:59:42.573Z,29.20
2017-07-15T14:02:11.827Z,31.90
2017-07-15T14:04:40.720Z,31.50
2017-07-15T14:07:09.557Z,31.70
2017-07-15T14:09:38.412Z,30.10
2017-07-15T14:12:08.271Z,30.30
2017-07-15T14:14:36.750Z,28.30
2017-07-15T14:17:05.619Z,28.30
2017-07-15T14:19:34.119Z,27.60
2017-07-15T14:22:03.206Z,26.70
2017-07-15T14:24:31.642Z,26.40
2017-07-15T14:27:00.516Z,26.70
2017-07-15T14:29:29.372Z,28.10
2017-07-15T14:31:57.912Z,29.20
2017-07-15T14:34:27.168Z,28.90
2017-07-15T14:36:56.232Z,28.40
2017-07-15T14:39:25.486Z,28.10
2017-07-15T14:41:54.323Z,29.40
2017-07-15T14:44:23.676Z,30.10
2017-07-15T14:46:52.519Z,30.70
2017-07-15T14:49:20.998Z,29.60
2017-07-15T14:51:49.458Z,27.20
2017-07-15T14:54:17.974Z,24.50
2017-07-15T14:56:46.418Z,23.30
2017-07-15T14:59:14.863Z,22.90
2017-07-15T15:01:43.353Z,22.60
2017-07-15T15:04:12.188Z,22.70
2017-07-15T15:06:42.318Z,22.60
2017-07-15T15:09:10.821Z,22.30
2017-07-15T15:11:39.394Z,22.10
2017-07-15T15:14:07.922Z,21.90
2017-07-15T15:16:36.755Z,22.10
2017-07-15T15:19:05.180Z,22.00
2017-07-15T15:21:34.079Z,22.40
2017-07-15T15:24:02.529Z,22.80
2017-07-15T15:26:31.378Z,23.00
2017-07-15T15:29:00.289Z,23.00
2017-07-15T15:31:28.725Z,23.40
2017-07-15T15:33:58.187Z,23.30
2017-07-15T15:36:27.139Z,23.80
2017-07-15T15:38:56.150Z,23.70
2017-07-15T15:41:24.981Z,23.50
2017-07-15T15:43:53.999Z,23.90
2017-07-15T15:46:22.833Z,24.80
2017-07-15T15:48:51.664Z,25.60
2017-07-15T15:51:22.121Z,25.40
2017-07-15T15:53:50.552Z,24.20
2017-07-15T15:56:18.994Z,23.70
2017-07-15T15:58:47.741Z,24.30
2017-07-15T16:01:16.599Z,25.50
2017-07-15T16:03:45.424Z,27.40
2017-07-15T16:06:13.932Z,27.60
2017-07-15T16:08:43.221Z,27.80
2017-07-15T16:11:12.278Z,27.40
2017-07-15T16:13:41.559Z,26.80
2017-07-15T16:16:10.065Z,25.80
2017-07-15T16:18:38.902Z,24.70
2017-07-15T16:21:07.407Z,24.00
2017-07-15T16:23:36.239Z,23.50
2017-07-15T16:26:05.902Z,22.80
2017-07-15T16:28:34.356Z,23.30
2017-07-15T16:31:02.812Z,24.70
2017-07-15T16:33:31.702Z,24.70
2017-07-15T16:36:00.985Z,24.80
2017-07-15T16:38:29.438Z,25.30
2017-07-15T16:40:57.962Z,24.20
2017-07-15T16:43:26.793Z,22.80
2017-07-15T16:45:55.238Z,22.30
2017-07-15T16:48:24.244Z,22.60
2017-07-15T16:50:52.668Z,22.60
2017-07-15T16:53:21.324Z,22.30
2017-07-15T16:55:50.224Z,22.40
2017-07-15T16:58:18.669Z,22.30
2017-07-15T17:00:47.136Z,22.60
2017-07-15T17:03:16.034Z,22.40
2017-07-15T17:05:44.471Z,22.00
2017-07-15T17:08:13.386Z,22.00
2017-07-15T17:10:42.236Z,22.30
2017-07-15T17:13:11.083Z,22.50
2017-07-15T17:15:40.093Z,22.40
2017-07-15T17:18:08.534Z,22.40
2017-07-15T17:20:37.375Z,22.30
2017-07-15T17:23:06.457Z,21.90
2017-07-15T17:25:35.298Z,21.80
2017-07-15T17:28:04.151Z,21.50
2017-07-15T17:30:33.404Z,21.50
2017-07-15T17:33:02.244Z,21.30
2017-07-15T17:35:30.668Z,21.10
2017-07-15T17:37:59.592Z,20.80
2017-07-15T17:40:28.040Z,20.80
2017-07-15T17:42:56.913Z,20.90
2017-07-15T17:45:26.024Z,20.70
2017-07-15T17:47:55.248Z,20.40
2017-07-15T17:50:24.861Z,20.20
2017-07-15T17:52:53.871Z,20.10
2017-07-15T17:55:22.308Z,20.00
2017-07-15T17:57:51.144Z,19.90
2017-07-15T18:00:20.096Z,19.70
2017-07-15T18:02:48.558Z,19.70
2017-07-15T18:05:17.006Z,19.70
2017-07-15T18:07:45.905Z,19.70
2017-07-15T18:10:14.329Z,19.60
2017-07-15T18:12:43.197Z,19.20
2017-07-15T18:15:11.672Z,19.00
2017-07-15T18:17:40.127Z,18.70
2017-07-15T18:20:09.016Z,18.40
2017-07-15T18:22:38.075Z,18.20
2017-07-15T18:25:06.512Z,18.00
2017-07-15T18:27:35.110Z,17.90
2017-07-15T18:30:04.012Z,17.60
2017-07-15T18:32:32.479Z,17.70
2017-07-15T18:35:00.916Z,17.50
2017-07-15T18:37:29.449Z,17.30
2017-07-15T18:39:58.301Z,17.20
2017-07-15T18:42:26.737Z,17.00
2017-07-15T18:44:55.645Z,17.00
2017-07-15T18:47:24.550Z,16.90
2017-07-15T18:49:53.579Z,17.00
2017-07-15T18:52:23.318Z,16.90
2017-07-15T18:54:52.268Z,16.60
2017-07-15T18:57:21.348Z,16.50
2017-07-15T18:59:49.841Z,16.30
2017-07-15T19:02:18.667Z,16.20
2017-07-15T19:04:47.091Z,16.10
2017-07-15T19:07:16.396Z,16.00
2017-07-15T19:09:44.833Z,15.90
2017-07-15T19:12:13.652Z,15.90
2017-07-15T19:14:42.153Z,15.80
2017-07-15T19:17:10.584Z,15.60
2017-07-15T19:19:39.410Z,15.60
2017-07-15T19:22:08.290Z,15.50
2017-07-15T19:24:36.798Z,15.40
2017-07-15T19:27:05.227Z,15.10
2017-07-15T19:29:33.660Z,15.00
2017-07-15T19:32:02.907Z,15.10
2017-07-15T19:34:31.736Z,15.20
2017-07-15T19:37:00.166Z,15.20
2017-07-15T19:39:28.641Z,14.90
2017-07-15T19:41:57.086Z,15.20
2017-07-15T19:44:26.428Z,15.20
2017-07-15T19:46:54.917Z,15.20
2017-07-15T19:49:23.349Z,14.80
2017-07-15T19:51:52.553Z,14.50
2017-07-15T19:54:21.032Z,14.70
2017-07-15T19:56:50.283Z,15.00
2017-07-15T19:59:18.807Z,14.70
2017-07-15T20:01:48.014Z,14.50
2017-07-15T20:04:16.897Z,14.20
2017-07-15T20:06:46.209Z,14.00
2017-07-15T20:09:14.643Z,14.20
2017-07-15T20:11:43.123Z,14.10
2017-07-15T20:14:11.552Z,14.00
2017-07-15T20:16:40.207Z,13.90
2017-07-15T20:19:09.196Z,13.80
2017-07-15T20:21:38.771Z,13.60
2017-07-15T20:24:07.217Z,13.40
2017-07-15T20:26:35.678Z,13.90
2017-07-15T20:29:04.551Z,14.20
2017-07-15T20:31:33.410Z,14.10
2017-07-15T20:34:03.644Z,14.10
2017-07-15T20:36:37.649Z,13.80
2017-07-15T20:39:06.162Z,13.60
2017-07-15T20:41:35.206Z,13.50
2017-07-15T20:44:03.698Z,13.40
2017-07-15T20:46:32.141Z,13.20
2017-07-15T20:49:01.009Z,13.00
2017-07-15T20:51:30.265Z,12.80
2017-07-15T20:54:15.734Z,12.70
2017-07-15T20:56:44.178Z,12.60
2017-07-15T20:59:13.376Z,12.40
2017-07-15T21:01:42.259Z,12.40
2017-07-15T21:04:11.106Z,12.50
2017-07-15T21:06:39.990Z,12.40
2017-07-15T21:09:09.024Z,12.60
2017-07-15T21:11:37.665Z,12.60
2017-07-15T21:14:06.779Z,12.60
2017-07-15T21:16:35.629Z,12.40
2017-07-15T21:19:04.354Z,12.30
2017-07-15T21:21:32.840Z,12.20
2017-07-15T21:24:01.681Z,12.10
2017-07-15T21:26:30.516Z,11.90
2017-07-15T21:28:58.993Z,11.80
2017-07-15T21:31:27.440Z,11.60
2017-07-15T21:33:56.061Z,11.50
2017-07-15T21:36:24.896Z,11.40
2017-07-15T21:38:53.326Z,11.40
2017-07-15T21:41:21.822Z,11.30
2017-07-15T21:43:50.834Z,11.30
2017-07-15T21:46:19.364Z,11.20
2017-07-15T21:48:47.848Z,11.20
2017-07-15T21:51:17.836Z,11.10
2017-07-15T21:53:46.292Z,11.20
2017-07-15T21:56:15.170Z,11.20
2017-07-15T21:58:44.102Z,11.10
2017-07-15T22:01:12.604Z,11.10
2017-07-15T22:03:41.064Z,11.30
2017-07-15T22:06:09.893Z,11.30
2017-07-15T22:08:38.801Z,11.10
2017-07-15T22:11:07.284Z,11.00
2017-07-15T22:13:36.501Z,10.90
2017-07-15T22:16:05.710Z,10.90
2017-07-15T22:18:34.206Z,10.90
2017-07-15T22:21:02.633Z,11.00
2017-07-15T22:23:31.067Z,10.90
2017-07-15T22:25:59.940Z,10.90
2017-07-15T22:28:29.192Z,11.00
2017-07-15T22:30:58.082Z,11.10
2017-07-15T22:33:26.519Z,11.10
2017-07-15T22:35:55.039Z,11.20
2017-07-15T22:38:23.509Z,11.20
2017-07-15T22:40:52.152Z,11.10
2017-07-15T22:43:20.919Z,11.10
2017-07-15T22:45:49.348Z,10.90
2017-07-15T22:48:17.787Z,10.90
2017-07-15T22:50:46.253Z,10.90
2017-07-15T22:53:14.693Z,10.90
2017-07-15T22:55:43.164Z,10.80
2017-07-15T22:58:12.391Z,10.80
2017-07-15T23:00:41.252Z,10.90
2017-07-15T23:03:09.691Z,10.90
2017-07-15T23:05:38.165Z,10.80
2017-07-15T23:08:06.614Z,10.70
2017-07-15T23:10:35.104Z,10.70
2017-07-15T23:13:03.932Z,10.60
2017-07-15T23:15:32.832Z,10.50
2017-07-15T23:18:01.260Z,10.60
2017-07-15T23:20:29.737Z,10.60
2017-07-15T23:22:58.163Z,10.50
2017-07-15T23:25:27.033Z,10.50
2017-07-15T23:27:55.998Z,10.50
2017-07-15T23:30:24.442Z,10.50
2017-07-15T23:32:53.317Z,10.40
2017-07-15T23:35:22.641Z,10.30
2017-07-15T23:37:51.073Z,10.50
2017-07-15T23:40:19.716Z,10.40
2017-07-15T23:42:48.924Z,10.20
2017-07-15T23:45:17.775Z,10.10
2017-07-15T23:47:46.206Z,10.20
2017-07-15T23:50:14.783Z,10.20
2017-07-15T23:52:43.652Z,10.20
2017-07-15T23:55:12.153Z,10.10
2017-07-15T23:57:41.064Z,10.00
